AirNav  
 
 346 users online  

K50 Cook Airfield
Rose Hill, Kansas, USA

GOING TO ROSE HILL?


FAA INFORMATION EFFECTIVE 07 DECEMBER 2017

Location

FAA Identifier: K50
Lat/Long: 37-33-58.8109N / 097-10-28.2667W
37-33.980182N / 097-10.471112W
37.5663364 / -97.1745185
(estimated)
Elevation: 1345 ft. / 410 m (estimated)
Variation: 07E (1985)
From city: 2 miles W of ROSE HILL, KS
Time zone: UTC -6 (UTC -5 during Daylight Saving Time)
Zip code: 67037

Airport Operations

Airport use: Open to the public
Activation date: 03/1960
Control tower: no
ARTCC: KANSAS CITY CENTER
FSS: WICHITA FLIGHT SERVICE STATION
NOTAMs facility: ICT (NOTAM-D service available)
Attendance: UNATNDD
Wind indicator: lighted
Segmented circle: no
Lights: ACTVT MIRL RWY 17/35 AND PAPI RWY 17-123.5

Airport Communications

CTAF/UNICOM: 122.8
WX AWOS-3PT at 3AU (8 nm NE): 124.175 (316-733-6696)
WX AWOS-3PT at BEC (8 nm N): 119.45 (316-515-7116)
WX ASOS at AAO (11 nm N): 134.025 (316-636-2541)
WX AWOS-3 at 1K1 (13 nm N): 118.3 (316-530-6004)
WX ASOS at ICT (13 nm W): PHONE 316-945-8022
WX AWOS-3 at EGT (18 nm SW): 118.875 (620-326-2470)

Nearby radio navigation aids

VOR radial/distance  VOR name  Freq  Var
ICTr112/22.2WICHITA VORTAC113.8007E

 
NDB name  Hdg/Dist  Freq  Var  ID
PICHE089/13.433204EIC .. -.-.
NEWTON165/30.228106EEWK . .-- -.-

Airport Services

Fuel available: 100LL
SELF-SVC FUEL AVBL 24 HRS.
Parking: tiedowns
Airframe service: NONE
Powerplant service: NONE
Bottled oxygen: NONE
Bulk oxygen: NONE

Runway Information

Runway 17/35

Dimensions: 2507 x 40 ft. / 764 x 12 m
Surface: asphalt, in good condition
Weight bearing capacity: 
Single wheel: 2.0
Runway edge lights: medium intensity
RUNWAY 17  RUNWAY 35
Latitude: 37-34.201667N37-33.788500N
Longitude: 097-10.496333W097-10.496667W
Elevation: 1334.0 ft.1340.0 ft.
Traffic pattern: leftleft
Displaced threshold: no153 ft.
Markings: basic, in good conditionbasic, in good condition
Visual slope indicator: 2-light PAPI on left (4.00 degrees glide path)
Obstructions: 24 ft. trees, 330 ft. from runway, 65 ft. right of centerline, 5:1 slope to clear
12 FT TREE 120 FT FM THLD 55 FT RIGHT OF CNTRLN AND 6 FT TREE 180 FT FM THLD 80 FT LEFT OF CNTRLN.
none
RY 35 +15 FT ROAD AT 100 FT.

Runway 1/19

Dimensions: 1600 x 50 ft. / 488 x 15 m
Surface: turf, in good condition
Runway edge markings: MKD WITH ORANGE CONES.
Gradient: S
RUNWAY 1  RUNWAY 19
Latitude: 37-33.833000N37-34.080667N
Longitude: 097-10.488000W097-10.374667W
Elevation: 1340.0 ft.1325.0 ft.
Gradient: 0.9% UP
Traffic pattern: leftleft
Obstructions: 15 ft. road, 230 ft. from runway, 15:1 slope to clear63 ft. tree, 655 ft. from runway, 10:1 slope to clear

Airport Ownership and Management from official FAA records

Ownership: Privately-owned
Owner: CROSSWIND AVAITION INC.
P.O. BOX 574
ROSE HILL, KS 67133
Phone 316-706-6131
Manager: STEVE LOGUE
6841 S.143RD
DERBY, KS 67037
Phone 316-706-6131
CO-MANAGER PHONE 316-650-6581.

Airport Operational Statistics

Aircraft based on the field: 72
Single engine airplanes: 67
Multi engine airplanes: 3
Ultralights: 2
    
Aircraft operations: avg 28/day *
98% local general aviation
2% transient general aviation
* for 12-month period ending 22 September 2016

Instrument Procedures

There are no published instrument procedures at K50.

Some nearby airports with instrument procedures:

KIAB - Mc Connell Air Force Base (6 nm NW)
KCEA - Cessna Aircraft Field Airport (6 nm NW)
3AU - Augusta Municipal Airport (8 nm NE)
KBEC - Beech Factory Airport (8 nm N)
KAAO - Colonel James Jabara Airport (11 nm N)
1K1 - Lloyd Stearman Field Airport (13 nm N)
KICT - Wichita Dwight D Eisenhower National Airport (13 nm W)
KEGT - Wellington Municipal Airport (18 nm SW)
 
Loc | Ops | Rwys | IFR | FBO | Links
Com | Nav | Svcs | Stats | Notes

Kansas City Aviation Department
 
Area around K50 (Cook Airfield)
 
Road maps at: MapQuest Bing Google
 
Aerial photo
WARNING: Photo may not be current or correct
Aerial photo of K50 (Cook Airfield)
Photo by Gabe Morrow
Photo taken 25-Sep-2010
looking northeast.

Do you have a better or more recent aerial photo of Cook Airfield that you would like to share? If so, please send us your photo.

 
Sectional chart

 
Airport distance calculator
Flying to Cook Airfield? Find the distance to fly.

From to K50

Sunrise and sunset
Times for 17-Dec-2017
 Local
(UTC-6)
 Zulu
(UTC)
Morning civil twilight07:0913:09
Sunrise07:3913:39
Sunset17:1123:11
Evening civil twilight17:4023:40

Current date and time
Zulu (UTC)  17-Dec-2017 08:07:47
Local (UTC-6)  17-Dec-2017 02:07:47
 
METAR
KIAB 
5nm NW 
170805Z AUTO 19011KT 10SM BKN009 OVC030 06/05 A2993 RMK AO2 CIG 009V030 CIG 008 RWY01 SLP138
K3AU 
8nm NE 
170755Z AUTO 15008KT 5SM BR BKN007 OVC011 05/05 A2994 RMK AO2
KBEC 
8nm N 
170755Z AUTO 17010KT 5SM BR OVC009 06/05 A2994 RMK AO2 T00560047
KAAO 
11nm N 
170754Z AUTO 17010KT 5SM BR BKN010 BKN014 OVC030 06/06 A2994 RMK AO2 RAB39E49 CIG 008V012 SLP139 P0000 T00610056
K1K1 
13nm N 
170755Z AUTO 17007KT 5SM DZ SCT008 BKN012 OVC030 05/05 A2994 RMK AO2 T00520045
KICT 
13nm W 
170753Z AUTO 16013KT 10SM OVC032 07/06 A2993 RMK AO2 SLP135 T00720056
TAF
KIAB 
5nm NW 
170518Z 1705/1808 19012G18KT 8000 -RA BKN060 BKN090 QNH2995INS BECMG 1705/1706 19009KT 9999 NSW SCT050 BKN080 QNH2995INS BECMG 1711/1712 18008KT 8000 BR BKN006 OVC010 QNH2996INS BECMG 1716/1717 VRB06KT 9999 NSW BKN015 OVC020 QNH3002INS BECMG 1723/1724 VRB06KT 9999 BKN020 OVC025 QNH3006INS TX11/1721Z TN05/1712Z
KICT 
13nm W 
170539Z 1706/1806 18015KT P6SM VCSH SCT040 OVC080 FM170800 18010KT P6SM VCSH OVC025 FM171000 18008KT P6SM VCSH OVC015 FM171200 18006KT P6SM OVC015 TEMPO 1713/1716 OVC008 FM171800 20005KT P6SM BKN025 FM180300 VRB05KT P6SM OVC015
NOTAMs
Click for the latest NOTAMs
NOTAMs are issued by the DoD/FAA and will open in a separate window not controlled by AirNav.

 

 
 

FBO, Fuel Providers, and Aircraft Ground Support

  
 Business Name 
 
 Contact 
 
 Services / Description 
 
Fuel Prices
 
Comments
  
Crosswinds Aviation, Inc. 316-706-6131
[web site]
[email]
Airport management, Aviation fuel, Aircraft parking (ramp or tiedown), Hangars, Courtesy transportation, Restrooms, Residence

More info about Crosswinds Aviation, Inc.
Avfuel
100LL Mogas
SS $4.29 $2.89 
GUARANTEED
 
   write
SS=Self service
Update Fuel Prices
 

Would you like to see your business listed on this page?

 If your business provides an interesting product or service to pilots, flight crews, aircraft, or users of the Cook Airfield, you should consider listing it here.  To start the listing process, click on the button below
 
Add a business
 

Other Pages about Cook Airfield

cookairfield.com
 
Update a link
 
Copyright © AirNav, LLC. All rights reserved. Privacy Policy  Contact